createdAt,value
2019-02-22T00:00:41.822Z,11.43
2019-02-22T00:03:10.156Z,11.30
2019-02-22T00:05:38.375Z,11.33
2019-02-22T00:08:06.892Z,11.80
2019-02-22T00:10:35.121Z,12.33
2019-02-22T00:13:03.356Z,11.88
2019-02-22T00:15:31.584Z,11.60
2019-02-22T00:18:00.148Z,12.33
2019-02-22T00:20:28.403Z,11.60
2019-02-22T00:22:56.644Z,12.07
2019-02-22T00:25:24.890Z,10.85
2019-02-22T00:27:53.128Z,11.08
2019-02-22T00:30:21.626Z,10.38
2019-02-22T00:32:49.989Z,11.15
2019-02-22T00:35:18.277Z,10.70
2019-02-22T00:37:46.512Z,10.93
2019-02-22T00:40:15.065Z,10.98
2019-02-22T00:42:43.295Z,11.18
2019-02-22T00:45:11.529Z,11.00
2019-02-22T00:47:40.032Z,12.10
2019-02-22T00:50:08.484Z,11.20
2019-02-22T00:52:36.744Z,11.57
2019-02-22T00:55:05.624Z,11.85
2019-02-22T00:57:33.868Z,12.37
2019-02-22T01:00:02.104Z,12.00
2019-02-22T01:02:30.517Z,11.97
2019-02-22T01:04:59.080Z,12.07
2019-02-22T01:07:27.573Z,11.40
2019-02-22T01:09:56.168Z,11.08
2019-02-22T01:12:24.411Z,12.43
2019-02-22T01:14:52.635Z,12.20
2019-02-22T01:17:20.855Z,13.13
2019-02-22T01:19:49.093Z,12.93
2019-02-22T01:22:17.316Z,12.60
2019-02-22T01:24:45.556Z,12.73
2019-02-22T01:27:14.098Z,12.03
2019-02-22T01:29:42.332Z,11.78
2019-02-22T01:32:10.557Z,12.53
2019-02-22T01:34:38.792Z,12.85
2019-02-22T01:37:07.348Z,11.95
2019-02-22T01:39:35.587Z,13.20
2019-02-22T01:42:03.799Z,11.65
2019-02-22T01:44:32.039Z,12.85
2019-02-22T01:47:00.431Z,12.05
2019-02-22T01:49:28.672Z,12.60
2019-02-22T01:51:56.900Z,13.22
2019-02-22T01:54:25.140Z,12.40
2019-02-22T01:56:53.365Z,12.55
2019-02-22T01:59:21.844Z,12.53
2019-02-22T02:01:50.339Z,12.63
2019-02-22T02:04:18.575Z,13.18
2019-02-22T02:06:46.805Z,12.90
2019-02-22T02:09:15.034Z,12.88
2019-02-22T02:11:43.597Z,12.93
2019-02-22T02:14:11.827Z,13.88
2019-02-22T02:16:40.383Z,13.10
2019-02-22T02:19:08.895Z,13.22
2019-02-22T02:21:37.129Z,13.05
2019-02-22T02:24:05.357Z,13.28
2019-02-22T02:26:33.580Z,13.80
2019-02-22T02:29:01.866Z,13.45
2019-02-22T02:31:30.124Z,13.28
2019-02-22T02:33:58.617Z,14.10
2019-02-22T02:36:26.841Z,14.58
2019-02-22T02:38:55.076Z,13.90
2019-02-22T02:41:23.308Z,14.85
2019-02-22T02:43:51.547Z,14.60
2019-02-22T02:46:19.877Z,14.00
2019-02-22T02:48:48.185Z,13.90
2019-02-22T02:51:16.613Z,13.50
2019-02-22T02:53:44.919Z,13.30
2019-02-22T02:56:13.165Z,13.28
2019-02-22T02:58:41.713Z,13.48
2019-02-22T03:01:09.945Z,13.70
2019-02-22T03:03:38.499Z,14.63
2019-02-22T03:06:20.742Z,13.70
2019-02-22T03:08:48.968Z,13.85
2019-02-22T03:11:21.004Z,13.05
2019-02-22T03:13:47.180Z,14.20
2019-02-22T03:16:16.021Z,12.98
2019-02-22T03:18:44.256Z,13.48
2019-02-22T03:21:12.480Z,12.80
2019-02-22T03:23:40.719Z,13.38
2019-02-22T03:26:11.674Z,14.05
2019-02-22T03:28:40.230Z,14.03
2019-02-22T03:31:08.498Z,13.32
2019-02-22T03:33:36.942Z,13.03
2019-02-22T03:36:05.504Z,13.50
2019-02-22T03:38:33.738Z,13.75
2019-02-22T03:41:02.289Z,13.13
2019-02-22T03:43:30.518Z,13.00
2019-02-22T03:45:58.757Z,13.00
2019-02-22T03:48:26.993Z,12.82
2019-02-22T03:50:55.224Z,12.55
2019-02-22T03:53:25.100Z,13.90
2019-02-22T03:55:53.337Z,12.18
2019-02-22T03:58:21.575Z,12.68
2019-02-22T04:00:49.805Z,12.58
2019-02-22T04:03:18.335Z,12.93
2019-02-22T04:05:46.825Z,13.03
2019-02-22T04:08:15.048Z,12.88
2019-02-22T04:10:43.604Z,13.20
2019-02-22T04:13:11.830Z,12.75
2019-02-22T04:15:40.122Z,12.95
2019-02-22T04:18:08.677Z,13.93
2019-02-22T04:20:37.006Z,13.25
2019-02-22T04:23:05.561Z,12.68
2019-02-22T04:25:34.176Z,12.50
2019-02-22T04:28:02.403Z,13.35
2019-02-22T04:30:30.644Z,14.13
2019-02-22T04:32:59.120Z,13.10
2019-02-22T04:35:27.642Z,13.32
2019-02-22T04:37:56.108Z,13.53
2019-02-22T04:40:24.609Z,12.45
2019-02-22T04:42:53.110Z,13.53
2019-02-22T04:45:21.354Z,12.68
2019-02-22T04:47:49.904Z,12.85
2019-02-22T04:50:18.128Z,13.10
2019-02-22T04:52:46.348Z,12.73
2019-02-22T04:55:14.581Z,12.85
2019-02-22T04:57:42.813Z,13.53
2019-02-22T05:00:11.041Z,13.13
2019-02-22T05:02:39.512Z,12.30
2019-02-22T05:05:07.753Z,12.47
2019-02-22T05:07:35.980Z,12.58
2019-02-22T05:10:04.766Z,12.53
2019-02-22T05:12:33.290Z,12.33
2019-02-22T05:15:11.989Z,13.75
2019-02-22T05:17:31.483Z,12.37
2019-02-22T05:19:59.716Z,12.80
2019-02-22T05:22:27.951Z,12.47
2019-02-22T05:24:56.191Z,12.93
2019-02-22T05:27:24.665Z,13.28
2019-02-22T05:29:53.234Z,13.20
2019-02-22T05:32:21.455Z,13.95
2019-02-22T05:34:49.694Z,14.07
2019-02-22T05:37:18.233Z,14.75
2019-02-22T05:39:46.465Z,14.68
2019-02-22T05:42:22.626Z,14.43
2019-02-22T05:44:44.665Z,14.43
2019-02-22T05:47:13.224Z,15.65
2019-02-22T05:49:41.447Z,14.83
2019-02-22T05:52:09.709Z,14.85
2019-02-22T05:54:38.201Z,16.30
2019-02-22T05:57:06.436Z,14.73
2019-02-22T05:59:34.987Z,14.83
2019-02-22T06:02:03.477Z,15.48
2019-02-22T06:04:31.978Z,15.58
2019-02-22T06:07:00.227Z,15.20
2019-02-22T06:09:28.448Z,15.48
2019-02-22T06:11:56.943Z,15.75
2019-02-22T06:14:25.178Z,15.60
2019-02-22T06:16:53.721Z,15.98
2019-02-22T06:19:21.948Z,16.27
2019-02-22T06:21:50.188Z,16.07
2019-02-22T06:24:18.696Z,16.52
2019-02-22T06:26:47.184Z,17.02
2019-02-22T06:29:15.483Z,16.00
2019-02-22T06:31:44.076Z,16.90
2019-02-22T06:34:12.567Z,15.00
2019-02-22T06:36:40.797Z,16.70
2019-02-22T06:39:09.352Z,16.00
2019-02-22T06:41:37.592Z,16.25
2019-02-22T06:44:05.821Z,16.10
2019-02-22T06:46:34.416Z,16.60
2019-02-22T06:49:02.926Z,17.45
2019-02-22T06:51:31.151Z,17.30
2019-02-22T06:53:59.382Z,16.55
2019-02-22T06:56:27.914Z,16.67
2019-02-22T06:58:56.208Z,17.52
2019-02-22T07:01:24.475Z,16.42
2019-02-22T07:03:52.753Z,18.00
2019-02-22T07:06:21.240Z,18.07
2019-02-22T07:08:49.742Z,17.80
2019-02-22T07:11:22.296Z,18.95
2019-02-22T07:13:50.524Z,19.92
2019-02-22T07:16:19.013Z,19.98
2019-02-22T07:18:49.837Z,19.85
2019-02-22T07:21:17.272Z,19.85
2019-02-22T07:23:45.826Z,20.82
2019-02-22T07:26:14.312Z,19.57
2019-02-22T07:28:42.541Z,20.05
2019-02-22T07:31:10.774Z,20.55
2019-02-22T07:33:39.279Z,20.48
2019-02-22T07:36:07.503Z,21.48
2019-02-22T07:38:36.069Z,21.40
2019-02-22T07:41:04.586Z,20.60
2019-02-22T07:43:32.818Z,20.80
2019-02-22T07:46:01.364Z,20.57
2019-02-22T07:48:29.840Z,22.02
2019-02-22T07:50:58.555Z,19.73
2019-02-22T07:53:26.992Z,20.92
2019-02-22T07:55:55.459Z,21.00
2019-02-22T07:58:23.779Z,22.98
2019-02-22T08:00:52.087Z,26.68
2019-02-22T08:03:20.609Z,24.65
2019-02-22T08:05:49.105Z,25.55
2019-02-22T08:08:17.594Z,23.80
2019-02-22T08:10:45.821Z,23.18
2019-02-22T08:13:19.731Z,24.67
2019-02-22T08:15:44.405Z,24.32
2019-02-22T08:18:12.708Z,24.80
2019-02-22T08:20:40.936Z,24.75
2019-02-22T08:23:09.468Z,24.80
2019-02-22T08:25:37.698Z,34.63
2019-02-22T08:28:05.937Z,28.60
2019-02-22T08:30:34.408Z,28.52
2019-02-22T08:33:02.768Z,26.27
2019-02-22T08:35:31.330Z,27.75
2019-02-22T08:37:59.566Z,28.17
2019-02-22T08:40:27.792Z,28.67
2019-02-22T08:42:56.032Z,27.73
2019-02-22T08:45:24.788Z,30.23
2019-02-22T08:47:53.293Z,28.10
2019-02-22T08:50:21.581Z,27.30
2019-02-22T08:52:49.906Z,25.88
2019-02-22T08:55:18.116Z,27.50
2019-02-22T08:57:46.356Z,28.42
2019-02-22T09:00:14.949Z,26.97
2019-02-22T09:02:43.180Z,28.17
2019-02-22T09:05:11.644Z,27.62
2019-02-22T09:07:39.884Z,26.48
2019-02-22T09:10:10.564Z,27.22
2019-02-22T09:12:38.797Z,27.65
2019-02-22T09:15:09.202Z,27.77
2019-02-22T09:17:37.435Z,27.00
2019-02-22T09:20:10.968Z,27.70
2019-02-22T09:22:39.209Z,26.52
2019-02-22T09:25:07.440Z,27.37
2019-02-22T09:27:35.950Z,27.15
2019-02-22T09:30:06.617Z,25.75
2019-02-22T09:32:34.856Z,26.25
2019-02-22T09:35:03.576Z,25.62
2019-02-22T09:37:31.804Z,24.35
2019-02-22T09:40:00.045Z,24.95
2019-02-22T09:42:28.561Z,25.12
2019-02-22T09:44:56.797Z,25.02
2019-02-22T09:47:25.328Z,23.20
2019-02-22T09:49:53.576Z,23.60
2019-02-22T09:52:22.652Z,23.45
2019-02-22T09:54:50.892Z,22.62
2019-02-22T09:57:19.112Z,21.77
2019-02-22T09:59:47.348Z,21.02
2019-02-22T10:02:15.889Z,21.73
2019-02-22T10:04:54.522Z,15.72
2019-02-22T10:07:14.331Z,17.67
2019-02-22T10:09:42.571Z,17.23
2019-02-22T10:12:10.795Z,16.93
2019-02-22T10:14:39.040Z,17.25
2019-02-22T10:17:07.264Z,18.27
2019-02-22T10:19:35.504Z,17.02
2019-02-22T10:22:03.734Z,16.50
2019-02-22T10:24:31.988Z,15.65
2019-02-22T10:27:00.220Z,16.48
2019-02-22T10:29:28.704Z,15.48
2019-02-22T10:31:56.948Z,14.78
2019-02-22T10:34:25.183Z,16.42
2019-02-22T10:36:53.404Z,15.93
2019-02-22T10:39:21.969Z,16.30
2019-02-22T10:41:50.197Z,15.75
2019-02-22T10:44:18.436Z,15.15
2019-02-22T10:46:46.669Z,14.55
2019-02-22T10:49:15.229Z,16.00
2019-02-22T10:51:43.448Z,15.30
2019-02-22T10:54:11.694Z,13.60
2019-02-22T10:56:39.921Z,13.98
2019-02-22T10:59:08.160Z,14.45
2019-02-22T11:01:36.384Z,14.53
2019-02-22T11:04:04.620Z,13.68
2019-02-22T11:06:33.144Z,14.45
2019-02-22T11:09:01.394Z,14.80
2019-02-22T11:11:29.608Z,14.13
2019-02-22T11:13:57.884Z,14.93
2019-02-22T11:16:26.116Z,15.23
2019-02-22T11:18:54.424Z,15.05
2019-02-22T11:21:22.718Z,14.65
2019-02-22T11:23:50.964Z,14.78
2019-02-22T11:26:19.478Z,14.33
2019-02-22T11:28:47.707Z,15.38
2019-02-22T11:31:17.342Z,14.28
2019-02-22T11:33:46.078Z,14.07
2019-02-22T11:36:14.305Z,14.10
2019-02-22T11:38:42.532Z,14.35
2019-02-22T11:41:11.038Z,14.30
2019-02-22T11:43:39.265Z,14.35
2019-02-22T11:46:07.507Z,14.45
2019-02-22T11:48:35.812Z,14.83
2019-02-22T11:51:04.300Z,14.93
2019-02-22T11:53:32.557Z,14.85
2019-02-22T11:56:00.844Z,15.40
2019-02-22T11:58:29.370Z,13.75
2019-02-22T12:00:57.604Z,13.75
2019-02-22T12:03:25.836Z,14.07
2019-02-22T12:05:54.080Z,14.43
2019-02-22T12:08:22.630Z,13.72
2019-02-22T12:10:50.869Z,14.65
2019-02-22T12:13:19.100Z,15.68
2019-02-22T12:15:47.597Z,15.03
2019-02-22T12:18:16.094Z,15.30
2019-02-22T12:20:44.584Z,15.00
2019-02-22T12:23:13.084Z,16.27
2019-02-22T12:25:41.310Z,15.53
2019-02-22T12:28:09.898Z,14.40
2019-02-22T12:30:38.127Z,14.20
2019-02-22T12:33:06.640Z,13.98
2019-02-22T12:35:34.956Z,13.40
2019-02-22T12:38:03.184Z,14.05
2019-02-22T12:40:31.423Z,14.83
2019-02-22T12:42:59.649Z,14.58
2019-02-22T12:45:28.189Z,17.30
2019-02-22T12:47:56.446Z,17.75
2019-02-22T12:50:24.663Z,16.07
2019-02-22T12:52:53.172Z,16.15
2019-02-22T12:55:21.397Z,16.80
2019-02-22T12:57:49.644Z,15.70
2019-02-22T13:00:19.157Z,14.95
2019-02-22T13:02:47.376Z,16.12
2019-02-22T13:05:18.058Z,14.40
2019-02-22T13:07:46.290Z,14.65
2019-02-22T13:10:14.523Z,13.75
2019-02-22T13:12:42.756Z,12.53
2019-02-22T13:15:14.558Z,12.88
2019-02-22T13:17:43.386Z,12.05
2019-02-22T13:20:11.923Z,11.95
2019-02-22T13:22:40.144Z,11.65
2019-02-22T13:25:09.620Z,11.33
2019-02-22T13:27:38.122Z,11.38
2019-02-22T13:30:12.402Z,10.58
2019-02-22T13:32:40.652Z,10.18
2019-02-22T13:35:10.940Z,11.33
2019-02-22T13:37:38.844Z,10.70
2019-02-22T13:40:10.129Z,10.55
2019-02-22T13:42:38.358Z,10.00
2019-02-22T13:45:09.369Z,9.98
2019-02-22T13:47:37.606Z,10.05
2019-02-22T13:50:09.141Z,9.50
2019-02-22T13:52:37.809Z,9.43
2019-02-22T13:55:07.397Z,9.10
2019-02-22T13:57:35.652Z,8.75
2019-02-22T14:00:05.936Z,8.90
2019-02-22T14:02:34.160Z,8.83
2019-02-22T14:05:02.422Z,8.80
2019-02-22T14:07:30.637Z,7.95
2019-02-22T14:09:58.872Z,7.85
2019-02-22T14:12:27.103Z,8.38
2019-02-22T14:14:55.688Z,7.90
2019-02-22T14:17:23.912Z,7.85
2019-02-22T14:19:52.174Z,9.03
2019-02-22T14:22:20.657Z,8.45
2019-02-22T14:24:48.919Z,8.20
2019-02-22T14:27:17.145Z,7.28
2019-02-22T14:29:45.376Z,7.58
2019-02-22T14:32:13.600Z,7.15
2019-02-22T14:34:42.106Z,8.20
2019-02-22T14:37:10.355Z,8.00
2019-02-22T14:39:38.961Z,8.43
2019-02-22T14:42:07.336Z,9.70
2019-02-22T14:44:35.872Z,9.20
2019-02-22T14:47:04.101Z,8.55
2019-02-22T14:49:32.333Z,8.90
2019-02-22T14:52:00.557Z,8.88
2019-02-22T14:54:29.130Z,9.10
2019-02-22T14:56:57.642Z,8.55
2019-02-22T14:59:25.871Z,8.98
2019-02-22T15:01:54.409Z,8.68
2019-02-22T15:04:22.658Z,8.48
2019-02-22T15:06:51.189Z,8.63
2019-02-22T15:09:19.784Z,8.38
2019-02-22T15:11:48.009Z,9.08
2019-02-22T15:14:18.106Z,8.65
2019-02-22T15:16:50.780Z,9.28
2019-02-22T15:19:22.108Z,8.88
2019-02-22T15:21:49.850Z,8.15
2019-02-22T15:24:18.077Z,7.62
2019-02-22T15:26:46.312Z,9.68
2019-02-22T15:29:14.796Z,7.37
2019-02-22T15:31:43.298Z,6.83
2019-02-22T15:34:11.525Z,8.28
2019-02-22T15:36:40.079Z,7.42
2019-02-22T15:39:08.308Z,8.25
2019-02-22T15:41:36.939Z,7.47
2019-02-22T15:44:05.788Z,7.25
2019-02-22T15:46:36.924Z,7.42
2019-02-22T15:49:06.985Z,7.12
2019-02-22T15:54:04.350Z,7.00
2019-02-22T15:56:32.640Z,6.92
2019-02-22T15:59:01.139Z,6.85
2019-02-22T16:01:29.380Z,6.55
2019-02-22T16:04:11.085Z,6.47
2019-02-22T16:06:39.325Z,6.47
2019-02-22T16:09:07.908Z,6.08
2019-02-22T16:11:37.069Z,5.22
2019-02-22T16:14:07.269Z,6.53
2019-02-22T16:16:35.597Z,7.00
2019-02-22T16:19:03.865Z,6.58
2019-02-22T16:21:32.157Z,6.17
2019-02-22T16:24:00.384Z,6.37
2019-02-22T16:26:29.816Z,6.70
2019-02-22T16:28:58.056Z,6.50
2019-02-22T16:31:28.011Z,6.28
2019-02-22T16:33:56.301Z,6.33
2019-02-22T16:36:24.556Z,6.37
2019-02-22T16:38:52.788Z,6.40
2019-02-22T16:41:21.041Z,7.65
2019-02-22T16:43:49.272Z,7.28
2019-02-22T16:46:17.508Z,6.58
2019-02-22T16:48:45.748Z,6.97
2019-02-22T16:51:13.990Z,6.05
2019-02-22T16:53:42.545Z,5.80
2019-02-22T16:56:10.796Z,6.33
2019-02-22T16:58:39.325Z,6.80
2019-02-22T17:01:07.574Z,6.75
2019-02-22T17:03:36.110Z,6.53
2019-02-22T17:06:04.601Z,6.62
2019-02-22T17:08:32.834Z,6.33
2019-02-22T17:11:01.417Z,6.75
2019-02-22T17:13:29.636Z,6.50
2019-02-22T17:15:57.877Z,5.85
2019-02-22T17:18:26.110Z,5.40
2019-02-22T17:20:54.352Z,6.28
2019-02-22T17:23:22.580Z,6.33
2019-02-22T17:25:50.847Z,6.70
2019-02-22T17:28:19.076Z,7.03
2019-02-22T17:30:47.320Z,6.70
2019-02-22T17:33:15.904Z,6.50
2019-02-22T17:35:44.136Z,6.75
2019-02-22T17:38:12.355Z,6.62
2019-02-22T17:40:40.601Z,7.00
2019-02-22T17:43:08.832Z,8.38
2019-02-22T17:45:37.076Z,7.28
2019-02-22T17:48:05.746Z,6.03
2019-02-22T17:50:34.415Z,6.12
2019-02-22T17:53:02.640Z,6.10
2019-02-22T17:55:30.868Z,6.20
2019-02-22T17:57:59.108Z,5.85
2019-02-22T18:00:27.585Z,5.87
2019-02-22T18:02:55.840Z,6.50
2019-02-22T18:05:24.079Z,6.67
2019-02-22T18:07:52.327Z,6.53
2019-02-22T18:10:20.556Z,6.28
2019-02-22T18:12:49.095Z,5.90
2019-02-22T18:15:17.838Z,6.12
2019-02-22T18:17:47.242Z,5.30
2019-02-22T18:20:15.777Z,5.05
2019-02-22T18:22:44.046Z,5.83
2019-02-22T18:25:12.620Z,8.08
2019-02-22T18:27:40.864Z,7.35
2019-02-22T18:30:12.365Z,9.78
2019-02-22T18:32:40.596Z,7.37
2019-02-22T18:35:08.987Z,5.45
2019-02-22T18:37:37.629Z,5.45
2019-02-22T18:40:14.332Z,4.70
2019-02-22T18:42:42.829Z,4.92
2019-02-22T18:45:11.300Z,4.55
2019-02-22T18:47:39.541Z,5.28
2019-02-22T18:50:09.906Z,5.33
2019-02-22T18:52:38.151Z,4.67
2019-02-22T18:55:09.180Z,4.80
2019-02-22T18:57:37.409Z,5.08
2019-02-22T19:00:19.906Z,4.90
2019-02-22T19:02:48.433Z,4.90
2019-02-22T19:05:16.652Z,4.87
2019-02-22T19:07:44.892Z,5.05
2019-02-22T19:10:14.552Z,4.85
2019-02-22T19:12:42.791Z,5.78
2019-02-22T19:15:12.557Z,6.00
2019-02-22T19:17:41.106Z,5.90
2019-02-22T19:20:11.466Z,5.62
2019-02-22T19:22:39.708Z,6.90
2019-02-22T19:25:09.041Z,7.83
2019-02-22T19:27:37.280Z,6.12
2019-02-22T19:30:11.717Z,5.67
2019-02-22T19:32:40.318Z,18.35
2019-02-22T19:35:08.540Z,7.80
2019-02-22T19:37:37.091Z,5.97
2019-02-22T19:40:10.664Z,5.35
2019-02-22T19:42:42.004Z,5.15
2019-02-22T19:45:11.456Z,4.78
2019-02-22T19:47:42.055Z,4.70
2019-02-22T19:50:11.685Z,5.15
2019-02-22T19:52:39.921Z,5.28
2019-02-22T19:55:11.151Z,4.97
2019-02-22T19:57:39.392Z,4.83
2019-02-22T20:00:10.912Z,5.15
2019-02-22T20:02:39.156Z,5.08
2019-02-22T20:05:08.812Z,5.10
2019-02-22T20:07:37.302Z,5.58
2019-02-22T20:10:17.348Z,5.83
2019-02-22T20:12:39.205Z,5.30
2019-02-22T20:15:10.813Z,6.10
2019-02-22T20:17:40.315Z,5.55
2019-02-22T20:20:13.639Z,6.10
2019-02-22T20:22:41.873Z,5.80
2019-02-22T20:25:10.889Z,5.97
2019-02-22T20:27:39.386Z,5.78
2019-02-22T20:30:14.611Z,6.78
2019-02-22T20:32:42.970Z,5.80
2019-02-22T20:35:13.985Z,5.78
2019-02-22T20:37:51.797Z,5.90
2019-02-22T20:40:12.523Z,6.97
2019-02-22T20:42:40.768Z,10.68
2019-02-22T20:45:11.048Z,6.40
2019-02-22T20:47:39.283Z,6.78
2019-02-22T20:50:11.875Z,7.45
2019-02-22T20:52:40.412Z,5.83
2019-02-22T20:55:10.542Z,6.20
2019-02-22T20:57:39.041Z,6.27
2019-02-22T21:00:22.425Z,6.00
2019-02-22T21:02:50.663Z,7.05
2019-02-22T21:05:22.404Z,7.47
2019-02-22T21:07:50.653Z,7.00
2019-02-22T21:10:19.913Z,6.72
2019-02-22T21:12:48.156Z,6.25
2019-02-22T21:15:16.385Z,6.40
2019-02-22T21:17:44.669Z,6.62
2019-02-22T21:20:14.831Z,7.00
2019-02-22T21:22:43.070Z,7.40
2019-02-22T21:25:12.659Z,7.37
2019-02-22T21:27:41.140Z,7.03
2019-02-22T21:30:15.587Z,7.67
2019-02-22T21:32:44.167Z,6.95
2019-02-22T21:35:12.480Z,6.92
2019-02-22T21:37:42.256Z,7.33
2019-02-22T21:40:11.430Z,7.10
2019-02-22T21:42:39.660Z,6.80
2019-02-22T21:45:12.971Z,6.37
2019-02-22T21:47:41.494Z,7.00
2019-02-22T21:50:14.593Z,6.97
2019-02-22T21:52:43.082Z,7.37
2019-02-22T21:55:12.340Z,6.80
2019-02-22T21:57:40.888Z,6.83
2019-02-22T22:00:17.062Z,6.80
2019-02-22T22:02:45.567Z,7.30
2019-02-22T22:05:13.861Z,7.20
2019-02-22T22:07:42.210Z,7.55
2019-02-22T22:10:10.428Z,6.78
2019-02-22T22:12:38.916Z,7.03
2019-02-22T22:15:11.704Z,7.08
2019-02-22T22:17:39.936Z,7.45
2019-02-22T22:20:09.291Z,7.45
2019-02-22T22:22:37.514Z,7.78
2019-02-22T22:25:09.105Z,7.00
2019-02-22T22:27:37.744Z,6.80
2019-02-22T22:30:13.837Z,6.90
2019-02-22T22:32:42.081Z,7.08
2019-02-22T22:35:12.153Z,7.58
2019-02-22T22:37:40.380Z,6.67
2019-02-22T22:40:10.048Z,7.15
2019-02-22T22:42:38.265Z,6.53
2019-02-22T22:45:09.365Z,6.80
2019-02-22T22:50:08.161Z,7.00
2019-02-22T22:52:36.396Z,6.10
2019-02-22T22:55:05.941Z,6.47
2019-02-22T22:57:34.161Z,6.80
2019-02-22T23:00:02.729Z,6.92
2019-02-22T23:02:30.948Z,7.22
2019-02-22T23:04:59.178Z,6.92
2019-02-22T23:07:27.392Z,6.78
2019-02-22T23:09:55.620Z,7.60
2019-02-22T23:12:23.836Z,6.90
2019-02-22T23:14:52.071Z,6.65
2019-02-22T23:17:20.284Z,6.78
2019-02-22T23:19:48.840Z,7.08
2019-02-22T23:22:17.056Z,7.42
2019-02-22T23:24:45.289Z,7.03
2019-02-22T23:27:13.805Z,6.90
2019-02-22T23:29:42.301Z,7.28
2019-02-22T23:32:10.593Z,7.03
2019-02-22T23:34:38.840Z,7.85
2019-02-22T23:37:07.055Z,8.13
2019-02-22T23:39:35.284Z,7.80
2019-02-22T23:42:03.748Z,7.37
2019-02-22T23:44:31.998Z,8.05
2019-02-22T23:47:00.216Z,7.87
2019-02-22T23:49:28.473Z,7.92
2019-02-22T23:51:56.700Z,7.95
2019-02-22T23:54:25.192Z,7.95
2019-02-22T23:56:53.420Z,7.75
2019-02-22T23:59:21.984Z,7.85
